sensor_id;sensor_type;location;lat;lon;timestamp;P1;durP1;ratioP1;P2;durP2;ratioP2
64684;SDS011;51109;47.414;18.954;2022-07-05T00:01:03;4.20;;;2.08;;
64684;SDS011;51109;47.414;18.954;2022-07-05T00:03:29;7.20;;;2.38;;
64684;SDS011;51109;47.414;18.954;2022-07-05T00:05:55;4.13;;;2.17;;
64684;SDS011;51109;47.414;18.954;2022-07-05T00:08:21;3.92;;;2.20;;
64684;SDS011;51109;47.414;18.954;2022-07-05T00:10:47;4.47;;;2.10;;
64684;SDS011;51109;47.414;18.954;2022-07-05T00:13:14;2.47;;;1.95;;
64684;SDS011;51109;47.414;18.954;2022-07-05T00:15:40;2.72;;;2.08;;
64684;SDS011;51109;47.414;18.954;2022-07-05T00:18:06;2.97;;;1.90;;
64684;SDS011;51109;47.414;18.954;2022-07-05T00:20:32;3.97;;;2.22;;
64684;SDS011;51109;47.414;18.954;2022-07-05T00:22:58;2.60;;;1.70;;
64684;SDS011;51109;47.414;18.954;2022-07-05T00:25:24;4.55;;;2.03;;
64684;SDS011;51109;47.414;18.954;2022-07-05T00:27:50;4.32;;;2.13;;
64684;SDS011;51109;47.414;18.954;2022-07-05T00:30:18;3.20;;;1.83;;
64684;SDS011;51109;47.414;18.954;2022-07-05T00:32:45;2.03;;;1.85;;
64684;SDS011;51109;47.414;18.954;2022-07-05T00:35:11;3.78;;;1.80;;
64684;SDS011;51109;47.414;18.954;2022-07-05T00:37:37;1.95;;;1.83;;
64684;SDS011;51109;47.414;18.954;2022-07-05T00:40:03;3.42;;;1.85;;
64684;SDS011;51109;47.414;18.954;2022-07-05T00:42:30;5.68;;;1.70;;
64684;SDS011;51109;47.414;18.954;2022-07-05T00:44:56;2.65;;;1.80;;
64684;SDS011;51109;47.414;18.954;2022-07-05T00:47:22;2.90;;;2.00;;
64684;SDS011;51109;47.414;18.954;2022-07-05T00:49:48;2.38;;;1.70;;
64684;SDS011;51109;47.414;18.954;2022-07-05T00:52:14;4.43;;;1.95;;
64684;SDS011;51109;47.414;18.954;2022-07-05T00:54:41;3.50;;;2.20;;
64684;SDS011;51109;47.414;18.954;2022-07-05T00:57:07;1.98;;;1.58;;
64684;SDS011;51109;47.414;18.954;2022-07-05T00:59:33;3.33;;;1.83;;
64684;SDS011;51109;47.414;18.954;2022-07-05T01:02:00;3.35;;;1.60;;
64684;SDS011;51109;47.414;18.954;2022-07-05T01:04:26;3.25;;;1.80;;
64684;SDS011;51109;47.414;18.954;2022-07-05T01:06:52;3.35;;;1.77;;
64684;SDS011;51109;47.414;18.954;2022-07-05T01:09:19;3.85;;;2.00;;
64684;SDS011;51109;47.414;18.954;2022-07-05T01:11:47;2.00;;;1.77;;
64684;SDS011;51109;47.414;18.954;2022-07-05T01:14:21;3.00;;;1.80;;
64684;SDS011;51109;47.414;18.954;2022-07-05T01:16:48;1.90;;;1.75;;
64684;SDS011;51109;47.414;18.954;2022-07-05T01:19:15;3.28;;;1.70;;
64684;SDS011;51109;47.414;18.954;2022-07-05T01:21:43;2.20;;;2.00;;
64684;SDS011;51109;47.414;18.954;2022-07-05T01:24:11;2.50;;;1.77;;
64684;SDS011;51109;47.414;18.954;2022-07-05T01:26:39;2.15;;;1.60;;
64684;SDS011;51109;47.414;18.954;2022-07-05T01:29:06;2.78;;;1.60;;
64684;SDS011;51109;47.414;18.954;2022-07-05T01:31:35;2.70;;;1.50;;
64684;SDS011;51109;47.414;18.954;2022-07-05T01:34:03;4.03;;;1.60;;
64684;SDS011;51109;47.414;18.954;2022-07-05T01:36:29;1.75;;;1.60;;
64684;SDS011;51109;47.414;18.954;2022-07-05T01:38:55;6.20;;;1.90;;
64684;SDS011;51109;47.414;18.954;2022-07-05T01:41:21;1.60;;;1.50;;
64684;SDS011;51109;47.414;18.954;2022-07-05T01:43:47;2.72;;;1.70;;
64684;SDS011;51109;47.414;18.954;2022-07-05T01:46:13;3.65;;;1.70;;
64684;SDS011;51109;47.414;18.954;2022-07-05T01:48:42;4.00;;;1.65;;
64684;SDS011;51109;47.414;18.954;2022-07-05T01:51:30;2.80;;;1.60;;
64684;SDS011;51109;47.414;18.954;2022-07-05T01:53:58;1.52;;;1.42;;
64684;SDS011;51109;47.414;18.954;2022-07-05T01:56:24;2.33;;;1.83;;
64684;SDS011;51109;47.414;18.954;2022-07-05T01:58:50;2.88;;;1.70;;
64684;SDS011;51109;47.414;18.954;2022-07-05T02:01:39;1.52;;;1.42;;
64684;SDS011;51109;47.414;18.954;2022-07-05T02:04:06;3.80;;;1.70;;
64684;SDS011;51109;47.414;18.954;2022-07-05T02:06:33;3.03;;;1.80;;
64684;SDS011;51109;47.414;18.954;2022-07-05T02:08:59;1.67;;;1.58;;
64684;SDS011;51109;47.414;18.954;2022-07-05T02:11:25;2.10;;;1.60;;
64684;SDS011;51109;47.414;18.954;2022-07-05T02:13:51;3.63;;;1.80;;
64684;SDS011;51109;47.414;18.954;2022-07-05T02:16:17;5.38;;;1.63;;
64684;SDS011;51109;47.414;18.954;2022-07-05T02:18:47;2.13;;;1.40;;
64684;SDS011;51109;47.414;18.954;2022-07-05T02:21:13;1.85;;;1.75;;
64684;SDS011;51109;47.414;18.954;2022-07-05T02:23:39;2.08;;;1.77;;
64684;SDS011;51109;47.414;18.954;2022-07-05T02:26:05;2.45;;;1.65;;
64684;SDS011;51109;47.414;18.954;2022-07-05T02:28:30;3.85;;;1.60;;
64684;SDS011;51109;47.414;18.954;2022-07-05T02:30:56;2.65;;;1.98;;
64684;SDS011;51109;47.414;18.954;2022-07-05T02:33:22;1.60;;;1.50;;
64684;SDS011;51109;47.414;18.954;2022-07-05T02:35:48;2.15;;;1.83;;
64684;SDS011;51109;47.414;18.954;2022-07-05T02:38:14;1.90;;;1.80;;
64684;SDS011;51109;47.414;18.954;2022-07-05T02:40:40;2.40;;;1.77;;
64684;SDS011;51109;47.414;18.954;2022-07-05T02:43:06;3.05;;;1.80;;
64684;SDS011;51109;47.414;18.954;2022-07-05T02:45:32;3.10;;;2.50;;
64684;SDS011;51109;47.414;18.954;2022-07-05T02:47:57;2.90;;;1.60;;
64684;SDS011;51109;47.414;18.954;2022-07-05T02:50:23;1.92;;;1.70;;
64684;SDS011;51109;47.414;18.954;2022-07-05T02:52:49;2.60;;;1.70;;
64684;SDS011;51109;47.414;18.954;2022-07-05T02:55:16;2.20;;;1.67;;
64684;SDS011;51109;47.414;18.954;2022-07-05T02:57:42;1.98;;;1.75;;
64684;SDS011;51109;47.414;18.954;2022-07-05T03:00:08;1.60;;;1.45;;
64684;SDS011;51109;47.414;18.954;2022-07-05T03:02:34;2.30;;;1.80;;
64684;SDS011;51109;47.414;18.954;2022-07-05T03:05:00;4.05;;;2.15;;
64684;SDS011;51109;47.414;18.954;2022-07-05T03:07:26;2.17;;;1.92;;
64684;SDS011;51109;47.414;18.954;2022-07-05T03:09:52;1.83;;;1.70;;
64684;SDS011;51109;47.414;18.954;2022-07-05T03:12:18;7.55;;;1.85;;
64684;SDS011;51109;47.414;18.954;2022-07-05T03:14:44;3.15;;;1.98;;
64684;SDS011;51109;47.414;18.954;2022-07-05T03:17:09;1.70;;;1.60;;
64684;SDS011;51109;47.414;18.954;2022-07-05T03:19:35;2.55;;;1.75;;
64684;SDS011;51109;47.414;18.954;2022-07-05T03:22:02;3.50;;;2.00;;
64684;SDS011;51109;47.414;18.954;2022-07-05T03:24:28;3.72;;;2.10;;
64684;SDS011;51109;47.414;18.954;2022-07-05T03:26:54;1.80;;;1.70;;
64684;SDS011;51109;47.414;18.954;2022-07-05T03:29:20;3.47;;;1.55;;
64684;SDS011;51109;47.414;18.954;2022-07-05T03:31:46;1.92;;;1.65;;
64684;SDS011;51109;47.414;18.954;2022-07-05T03:34:12;2.15;;;1.58;;
64684;SDS011;51109;47.414;18.954;2022-07-05T03:36:38;2.28;;;1.88;;
64684;SDS011;51109;47.414;18.954;2022-07-05T03:39:03;2.15;;;1.95;;
64684;SDS011;51109;47.414;18.954;2022-07-05T03:41:29;4.35;;;1.85;;
64684;SDS011;51109;47.414;18.954;2022-07-05T03:43:55;2.45;;;1.92;;
64684;SDS011;51109;47.414;18.954;2022-07-05T03:46:21;2.00;;;1.90;;
64684;SDS011;51109;47.414;18.954;2022-07-05T03:48:47;2.40;;;2.20;;
64684;SDS011;51109;47.414;18.954;2022-07-05T03:51:13;3.97;;;2.00;;
64684;SDS011;51109;47.414;18.954;2022-07-05T03:53:39;3.60;;;2.22;;
64684;SDS011;51109;47.414;18.954;2022-07-05T03:56:05;2.10;;;1.90;;
64684;SDS011;51109;47.414;18.954;2022-07-05T03:58:31;2.10;;;1.88;;
64684;SDS011;51109;47.414;18.954;2022-07-05T04:00:57;3.72;;;2.03;;
64684;SDS011;51109;47.414;18.954;2022-07-05T04:03:23;2.25;;;2.05;;
64684;SDS011;51109;47.414;18.954;2022-07-05T04:05:48;4.38;;;2.15;;
64684;SDS011;51109;47.414;18.954;2022-07-05T04:08:14;3.67;;;2.05;;
64684;SDS011;51109;47.414;18.954;2022-07-05T04:10:40;2.45;;;1.98;;
64684;SDS011;51109;47.414;18.954;2022-07-05T04:13:06;5.43;;;2.20;;
64684;SDS011;51109;47.414;18.954;2022-07-05T04:15:32;2.92;;;2.03;;
64684;SDS011;51109;47.414;18.954;2022-07-05T04:17:58;2.97;;;2.35;;
64684;SDS011;51109;47.414;18.954;2022-07-05T04:20:23;4.60;;;2.05;;
64684;SDS011;51109;47.414;18.954;2022-07-05T04:22:50;5.15;;;2.17;;
64684;SDS011;51109;47.414;18.954;2022-07-05T04:25:16;2.30;;;2.00;;
64684;SDS011;51109;47.414;18.954;2022-07-05T04:27:47;4.07;;;2.22;;
64684;SDS011;51109;47.414;18.954;2022-07-05T04:30:14;7.35;;;2.10;;
64684;SDS011;51109;47.414;18.954;2022-07-05T04:32:41;2.15;;;1.83;;
64684;SDS011;51109;47.414;18.954;2022-07-05T04:35:08;3.67;;;2.05;;
64684;SDS011;51109;47.414;18.954;2022-07-05T04:37:34;3.45;;;2.03;;
64684;SDS011;51109;47.414;18.954;2022-07-05T04:40:00;2.50;;;2.00;;
64684;SDS011;51109;47.414;18.954;2022-07-05T04:42:26;2.97;;;1.92;;
64684;SDS011;51109;47.414;18.954;2022-07-05T04:44:52;5.40;;;1.98;;
64684;SDS011;51109;47.414;18.954;2022-07-05T04:47:18;3.55;;;1.80;;
64684;SDS011;51109;47.414;18.954;2022-07-05T04:49:44;2.63;;;1.73;;
64684;SDS011;51109;47.414;18.954;2022-07-05T04:52:09;2.60;;;1.88;;
64684;SDS011;51109;47.414;18.954;2022-07-05T04:54:36;2.05;;;1.80;;
64684;SDS011;51109;47.414;18.954;2022-07-05T04:57:02;2.75;;;2.25;;
64684;SDS011;51109;47.414;18.954;2022-07-05T04:59:28;2.42;;;2.00;;
64684;SDS011;51109;47.414;18.954;2022-07-05T05:01:55;7.65;;;1.90;;
64684;SDS011;51109;47.414;18.954;2022-07-05T05:04:20;2.67;;;2.20;;
64684;SDS011;51109;47.414;18.954;2022-07-05T05:06:47;2.55;;;1.98;;
64684;SDS011;51109;47.414;18.954;2022-07-05T05:09:13;2.67;;;1.80;;
64684;SDS011;51109;47.414;18.954;2022-07-05T05:11:39;1.55;;;1.40;;
64684;SDS011;51109;47.414;18.954;2022-07-05T05:14:04;2.95;;;1.92;;
64684;SDS011;51109;47.414;18.954;2022-07-05T05:16:30;1.95;;;1.70;;
64684;SDS011;51109;47.414;18.954;2022-07-05T05:18:56;2.30;;;2.05;;
64684;SDS011;51109;47.414;18.954;2022-07-05T05:21:22;5.40;;;1.92;;
64684;SDS011;51109;47.414;18.954;2022-07-05T05:23:48;2.75;;;1.73;;
64684;SDS011;51109;47.414;18.954;2022-07-05T05:26:14;1.80;;;1.60;;
64684;SDS011;51109;47.414;18.954;2022-07-05T05:28:40;2.13;;;1.65;;
64684;SDS011;51109;47.414;18.954;2022-07-05T05:31:06;1.80;;;1.70;;
64684;SDS011;51109;47.414;18.954;2022-07-05T05:33:32;1.63;;;1.50;;
64684;SDS011;51109;47.414;18.954;2022-07-05T05:35:58;3.20;;;1.52;;
64684;SDS011;51109;47.414;18.954;2022-07-05T05:38:25;3.03;;;1.40;;
64684;SDS011;51109;47.414;18.954;2022-07-05T05:40:51;4.68;;;1.65;;
64684;SDS011;51109;47.414;18.954;2022-07-05T05:43:17;1.90;;;1.70;;
64684;SDS011;51109;47.414;18.954;2022-07-05T05:45:43;2.95;;;2.00;;
64684;SDS011;51109;47.414;18.954;2022-07-05T05:48:09;2.67;;;1.65;;
64684;SDS011;51109;47.414;18.954;2022-07-05T05:50:36;2.22;;;2.03;;
64684;SDS011;51109;47.414;18.954;2022-07-05T05:53:04;2.60;;;1.77;;
64684;SDS011;51109;47.414;18.954;2022-07-05T05:55:30;2.78;;;1.73;;
64684;SDS011;51109;47.414;18.954;2022-07-05T05:57:57;2.95;;;1.70;;
64684;SDS011;51109;47.414;18.954;2022-07-05T06:00:53;3.80;;;1.75;;
64684;SDS011;51109;47.414;18.954;2022-07-05T06:03:22;4.85;;;2.42;;
64684;SDS011;51109;47.414;18.954;2022-07-05T06:05:50;2.10;;;1.52;;
64684;SDS011;51109;47.414;18.954;2022-07-05T06:08:16;2.58;;;1.77;;
64684;SDS011;51109;47.414;18.954;2022-07-05T06:10:43;4.50;;;1.85;;
64684;SDS011;51109;47.414;18.954;2022-07-05T06:13:10;6.28;;;1.70;;
64684;SDS011;51109;47.414;18.954;2022-07-05T06:15:38;3.28;;;1.58;;
64684;SDS011;51109;47.414;18.954;2022-07-05T06:18:04;3.53;;;1.80;;
64684;SDS011;51109;47.414;18.954;2022-07-05T06:20:32;1.95;;;1.60;;
64684;SDS011;51109;47.414;18.954;2022-07-05T06:23:00;3.83;;;1.80;;
64684;SDS011;51109;47.414;18.954;2022-07-05T06:25:27;4.00;;;1.70;;
64684;SDS011;51109;47.414;18.954;2022-07-05T06:27:55;6.13;;;1.70;;
64684;SDS011;51109;47.414;18.954;2022-07-05T06:30:23;4.45;;;2.08;;
64684;SDS011;51109;47.414;18.954;2022-07-05T06:32:50;2.53;;;1.77;;
64684;SDS011;51109;47.414;18.954;2022-07-05T06:35:16;2.30;;;1.67;;
64684;SDS011;51109;47.414;18.954;2022-07-05T06:37:47;4.38;;;2.08;;
64684;SDS011;51109;47.414;18.954;2022-07-05T06:42:50;6.05;;;1.60;;
64684;SDS011;51109;47.414;18.954;2022-07-05T06:45:18;2.20;;;1.70;;
64684;SDS011;51109;47.414;18.954;2022-07-05T06:47:45;2.80;;;1.58;;
64684;SDS011;51109;47.414;18.954;2022-07-05T06:50:18;1.50;;;1.40;;
64684;SDS011;51109;47.414;18.954;2022-07-05T06:52:44;1.73;;;1.38;;
64684;SDS011;51109;47.414;18.954;2022-07-05T06:55:10;4.78;;;1.55;;
64684;SDS011;51109;47.414;18.954;2022-07-05T06:57:36;2.00;;;1.35;;
64684;SDS011;51109;47.414;18.954;2022-07-05T07:00:02;2.75;;;1.80;;
64684;SDS011;51109;47.414;18.954;2022-07-05T07:02:29;1.85;;;1.67;;
64684;SDS011;51109;47.414;18.954;2022-07-05T07:04:55;1.52;;;1.40;;
64684;SDS011;51109;47.414;18.954;2022-07-05T07:07:21;2.20;;;1.73;;
64684;SDS011;51109;47.414;18.954;2022-07-05T07:10:06;1.67;;;1.58;;
64684;SDS011;51109;47.414;18.954;2022-07-05T07:12:32;1.48;;;1.30;;
64684;SDS011;51109;47.414;18.954;2022-07-05T07:14:58;3.40;;;1.50;;
64684;SDS011;51109;47.414;18.954;2022-07-05T07:17:24;2.60;;;1.50;;
64684;SDS011;51109;47.414;18.954;2022-07-05T07:19:50;1.58;;;1.48;;
64684;SDS011;51109;47.414;18.954;2022-07-05T07:22:16;1.58;;;1.48;;
64684;SDS011;51109;47.414;18.954;2022-07-05T07:24:42;1.55;;;1.45;;
64684;SDS011;51109;47.414;18.954;2022-07-05T07:27:08;2.10;;;1.60;;
64684;SDS011;51109;47.414;18.954;2022-07-05T07:29:35;5.00;;;1.55;;
64684;SDS011;51109;47.414;18.954;2022-07-05T07:32:02;5.38;;;1.40;;
64684;SDS011;51109;47.414;18.954;2022-07-05T07:34:29;3.10;;;1.30;;
64684;SDS011;51109;47.414;18.954;2022-07-05T07:36:55;4.60;;;1.63;;
64684;SDS011;51109;47.414;18.954;2022-07-05T07:39:21;1.60;;;1.50;;
64684;SDS011;51109;47.414;18.954;2022-07-05T07:41:48;2.58;;;1.38;;
64684;SDS011;51109;47.414;18.954;2022-07-05T07:44:15;6.47;;;1.73;;
64684;SDS011;51109;47.414;18.954;2022-07-05T07:46:41;2.58;;;1.27;;
64684;SDS011;51109;47.414;18.954;2022-07-05T07:49:08;1.63;;;1.17;;
64684;SDS011;51109;47.414;18.954;2022-07-05T07:51:34;2.20;;;1.65;;
64684;SDS011;51109;47.414;18.954;2022-07-05T07:54:01;4.93;;;1.77;;
64684;SDS011;51109;47.414;18.954;2022-07-05T07:56:27;1.70;;;1.50;;
64684;SDS011;51109;47.414;18.954;2022-07-05T07:58:54;2.95;;;1.60;;
64684;SDS011;51109;47.414;18.954;2022-07-05T08:01:20;3.95;;;1.95;;
64684;SDS011;51109;47.414;18.954;2022-07-05T08:03:46;3.08;;;1.40;;
64684;SDS011;51109;47.414;18.954;2022-07-05T08:06:13;4.95;;;1.63;;
64684;SDS011;51109;47.414;18.954;2022-07-05T08:08:39;2.65;;;1.50;;
64684;SDS011;51109;47.414;18.954;2022-07-05T08:11:06;3.78;;;1.67;;
64684;SDS011;51109;47.414;18.954;2022-07-05T08:13:34;2.90;;;1.67;;
64684;SDS011;51109;47.414;18.954;2022-07-05T08:16:01;2.65;;;1.60;;
64684;SDS011;51109;47.414;18.954;2022-07-05T08:18:27;3.75;;;1.65;;
64684;SDS011;51109;47.414;18.954;2022-07-05T08:21:12;2.22;;;1.70;;
64684;SDS011;51109;47.414;18.954;2022-07-05T08:23:56;3.63;;;1.60;;
64684;SDS011;51109;47.414;18.954;2022-07-05T08:26:24;2.75;;;1.70;;
64684;SDS011;51109;47.414;18.954;2022-07-05T08:28:49;7.13;;;2.22;;
64684;SDS011;51109;47.414;18.954;2022-07-05T08:31:15;3.95;;;1.63;;
64684;SDS011;51109;47.414;18.954;2022-07-05T08:33:41;3.15;;;1.77;;
64684;SDS011;51109;47.414;18.954;2022-07-05T08:36:07;5.70;;;1.90;;
64684;SDS011;51109;47.414;18.954;2022-07-05T08:38:33;3.88;;;1.80;;
64684;SDS011;51109;47.414;18.954;2022-07-05T08:40:59;5.57;;;2.05;;
64684;SDS011;51109;47.414;18.954;2022-07-05T08:43:27;4.40;;;1.88;;
64684;SDS011;51109;47.414;18.954;2022-07-05T08:45:53;1.67;;;1.58;;
64684;SDS011;51109;47.414;18.954;2022-07-05T08:48:22;2.92;;;1.65;;
64684;SDS011;51109;47.414;18.954;2022-07-05T08:50:50;1.70;;;1.60;;
64684;SDS011;51109;47.414;18.954;2022-07-05T08:53:20;3.60;;;1.42;;
64684;SDS011;51109;47.414;18.954;2022-07-05T08:55:47;1.70;;;1.48;;
64684;SDS011;51109;47.414;18.954;2022-07-05T08:58:13;5.22;;;1.80;;
64684;SDS011;51109;47.414;18.954;2022-07-05T09:00:39;3.75;;;1.85;;
64684;SDS011;51109;47.414;18.954;2022-07-05T09:03:08;1.30;;;1.20;;
64684;SDS011;51109;47.414;18.954;2022-07-05T09:05:42;5.72;;;1.63;;
64684;SDS011;51109;47.414;18.954;2022-07-05T09:08:09;3.33;;;1.90;;
64684;SDS011;51109;47.414;18.954;2022-07-05T09:10:39;4.55;;;2.08;;
64684;SDS011;51109;47.414;18.954;2022-07-05T09:13:07;3.55;;;1.80;;
64684;SDS011;51109;47.414;18.954;2022-07-05T09:15:33;4.50;;;2.03;;
64684;SDS011;51109;47.414;18.954;2022-07-05T09:17:59;2.95;;;1.80;;
64684;SDS011;51109;47.414;18.954;2022-07-05T09:20:26;2.78;;;2.10;;
64684;SDS011;51109;47.414;18.954;2022-07-05T09:22:53;2.08;;;1.88;;
64684;SDS011;51109;47.414;18.954;2022-07-05T09:25:21;5.78;;;2.20;;
64684;SDS011;51109;47.414;18.954;2022-07-05T09:30:34;3.53;;;2.20;;
64684;SDS011;51109;47.414;18.954;2022-07-05T09:35:37;3.35;;;1.83;;
64684;SDS011;51109;47.414;18.954;2022-07-05T09:38:05;2.42;;;2.03;;
64684;SDS011;51109;47.414;18.954;2022-07-05T09:40:47;4.38;;;2.40;;
64684;SDS011;51109;47.414;18.954;2022-07-05T09:43:15;6.85;;;2.40;;
64684;SDS011;51109;47.414;18.954;2022-07-05T09:48:22;5.38;;;2.65;;
64684;SDS011;51109;47.414;18.954;2022-07-05T09:50:49;12.20;;;2.42;;
64684;SDS011;51109;47.414;18.954;2022-07-05T09:53:19;4.75;;;2.65;;
64684;SDS011;51109;47.414;18.954;2022-07-05T09:55:59;5.90;;;2.22;;
64684;SDS011;51109;47.414;18.954;2022-07-05T09:58:26;5.85;;;2.45;;
64684;SDS011;51109;47.414;18.954;2022-07-05T10:00:52;3.25;;;2.47;;
64684;SDS011;51109;47.414;18.954;2022-07-05T10:03:18;8.63;;;3.22;;
64684;SDS011;51109;47.414;18.954;2022-07-05T10:05:44;6.65;;;3.47;;
64684;SDS011;51109;47.414;18.954;2022-07-05T10:08:10;7.15;;;3.80;;
64684;SDS011;51109;47.414;18.954;2022-07-05T10:10:38;8.82;;;4.15;;
64684;SDS011;51109;47.414;18.954;2022-07-05T10:13:06;10.38;;;4.13;;
64684;SDS011;51109;47.414;18.954;2022-07-05T10:15:33;7.00;;;4.30;;
64684;SDS011;51109;47.414;18.954;2022-07-05T10:18:07;8.00;;;4.28;;
64684;SDS011;51109;47.414;18.954;2022-07-05T10:23:06;5.28;;;3.30;;
64684;SDS011;51109;47.414;18.954;2022-07-05T10:25:37;7.30;;;3.70;;
64684;SDS011;51109;47.414;18.954;2022-07-05T10:28:05;4.15;;;3.55;;
64684;SDS011;51109;47.414;18.954;2022-07-05T10:30:33;4.55;;;3.75;;
64684;SDS011;51109;47.414;18.954;2022-07-05T10:33:04;5.53;;;3.88;;
64684;SDS011;51109;47.414;18.954;2022-07-05T10:35:31;4.72;;;3.60;;
64684;SDS011;51109;47.414;18.954;2022-07-05T10:37:58;4.18;;;3.78;;
64684;SDS011;51109;47.414;18.954;2022-07-05T10:40:25;7.43;;;3.40;;
64684;SDS011;51109;47.414;18.954;2022-07-05T10:42:54;5.85;;;3.63;;
64684;SDS011;51109;47.414;18.954;2022-07-05T10:45:34;7.68;;;3.75;;
64684;SDS011;51109;47.414;18.954;2022-07-05T10:50:43;4.43;;;3.97;;
64684;SDS011;51109;47.414;18.954;2022-07-05T10:53:13;7.00;;;4.32;;
64684;SDS011;51109;47.414;18.954;2022-07-05T10:55:51;7.22;;;4.22;;
64684;SDS011;51109;47.414;18.954;2022-07-05T11:06:20;5.78;;;4.60;;
64684;SDS011;51109;47.414;18.954;2022-07-05T11:09:13;5.10;;;4.60;;
64684;SDS011;51109;47.414;18.954;2022-07-05T11:12:18;7.57;;;5.03;;
64684;SDS011;51109;47.414;18.954;2022-07-05T11:23:19;5.50;;;4.88;;
64684;SDS011;51109;47.414;18.954;2022-07-05T11:25:37;6.85;;;4.40;;
64684;SDS011;51109;47.414;18.954;2022-07-05T11:28:15;5.53;;;4.60;;
64684;SDS011;51109;47.414;18.954;2022-07-05T11:30:47;8.77;;;5.40;;
64684;SDS011;51109;47.414;18.954;2022-07-05T11:33:40;5.03;;;4.47;;
64684;SDS011;51109;47.414;18.954;2022-07-05T11:36:25;6.35;;;4.30;;
64684;SDS011;51109;47.414;18.954;2022-07-05T11:41:45;5.90;;;4.10;;
64684;SDS011;51109;47.414;18.954;2022-07-05T11:44:12;8.55;;;3.92;;
64684;SDS011;51109;47.414;18.954;2022-07-05T11:46:40;4.38;;;3.65;;
64684;SDS011;51109;47.414;18.954;2022-07-05T11:49:07;7.85;;;3.80;;
64684;SDS011;51109;47.414;18.954;2022-07-05T11:51:32;5.30;;;4.18;;
64684;SDS011;51109;47.414;18.954;2022-07-05T11:53:58;7.72;;;4.35;;
64684;SDS011;51109;47.414;18.954;2022-07-05T11:56:26;6.18;;;3.92;;
64684;SDS011;51109;47.414;18.954;2022-07-05T11:58:53;4.22;;;3.50;;
64684;SDS011;51109;47.414;18.954;2022-07-05T12:01:19;4.10;;;3.70;;
64684;SDS011;51109;47.414;18.954;2022-07-05T12:03:54;5.28;;;3.90;;
64684;SDS011;51109;47.414;18.954;2022-07-05T12:06:21;4.10;;;3.70;;
64684;SDS011;51109;47.414;18.954;2022-07-05T12:09:01;4.90;;;4.28;;
64684;SDS011;51109;47.414;18.954;2022-07-05T12:11:30;4.40;;;3.75;;
64684;SDS011;51109;47.414;18.954;2022-07-05T12:14:21;4.30;;;3.80;;
64684;SDS011;51109;47.414;18.954;2022-07-05T12:16:48;4.65;;;3.80;;
64684;SDS011;51109;47.414;18.954;2022-07-05T12:19:24;4.18;;;3.60;;
64684;SDS011;51109;47.414;18.954;2022-07-05T12:21:52;4.10;;;3.80;;
64684;SDS011;51109;47.414;18.954;2022-07-05T12:24:19;5.00;;;4.53;;
64684;SDS011;51109;47.414;18.954;2022-07-05T12:26:45;5.85;;;4.38;;
64684;SDS011;51109;47.414;18.954;2022-07-05T12:29:11;7.28;;;5.05;;
64684;SDS011;51109;47.414;18.954;2022-07-05T12:31:37;6.45;;;4.90;;
64684;SDS011;51109;47.414;18.954;2022-07-05T12:34:16;5.90;;;4.82;;
64684;SDS011;51109;47.414;18.954;2022-07-05T12:36:43;6.07;;;5.07;;
64684;SDS011;51109;47.414;18.954;2022-07-05T12:39:09;6.30;;;5.50;;
64684;SDS011;51109;47.414;18.954;2022-07-05T12:41:41;5.57;;;4.90;;
64684;SDS011;51109;47.414;18.954;2022-07-05T12:44:08;5.87;;;5.30;;
64684;SDS011;51109;47.414;18.954;2022-07-05T12:46:37;6.88;;;5.50;;
64684;SDS011;51109;47.414;18.954;2022-07-05T12:49:03;6.47;;;5.88;;
64684;SDS011;51109;47.414;18.954;2022-07-05T12:54:02;7.50;;;5.93;;
64684;SDS011;51109;47.414;18.954;2022-07-05T12:56:50;11.13;;;6.68;;
64684;SDS011;51109;47.414;18.954;2022-07-05T12:59:36;8.23;;;6.03;;
64684;SDS011;51109;47.414;18.954;2022-07-05T13:02:02;13.23;;;6.97;;
64684;SDS011;51109;47.414;18.954;2022-07-05T13:04:29;9.50;;;6.40;;
64684;SDS011;51109;47.414;18.954;2022-07-05T13:06:56;10.35;;;6.50;;
64684;SDS011;51109;47.414;18.954;2022-07-05T13:12:13;8.70;;;7.03;;
64684;SDS011;51109;47.414;18.954;2022-07-05T13:14:41;6.70;;;5.95;;
64684;SDS011;51109;47.414;18.954;2022-07-05T13:17:08;10.82;;;6.78;;
64684;SDS011;51109;47.414;18.954;2022-07-05T13:19:37;6.80;;;6.10;;
64684;SDS011;51109;47.414;18.954;2022-07-05T13:22:05;6.85;;;6.25;;
64684;SDS011;51109;47.414;18.954;2022-07-05T13:24:31;6.20;;;5.70;;
64684;SDS011;51109;47.414;18.954;2022-07-05T13:26:57;4.97;;;4.28;;
64684;SDS011;51109;47.414;18.954;2022-07-05T13:29:23;5.03;;;4.53;;
64684;SDS011;51109;47.414;18.954;2022-07-05T13:31:49;3.75;;;3.35;;
64684;SDS011;51109;47.414;18.954;2022-07-05T13:34:15;4.43;;;4.00;;
64684;SDS011;51109;47.414;18.954;2022-07-05T13:36:41;4.60;;;4.20;;
64684;SDS011;51109;47.414;18.954;2022-07-05T13:39:07;5.32;;;4.20;;
64684;SDS011;51109;47.414;18.954;2022-07-05T13:41:33;3.53;;;3.22;;
64684;SDS011;51109;47.414;18.954;2022-07-05T13:43:59;3.88;;;3.58;;
64684;SDS011;51109;47.414;18.954;2022-07-05T13:46:25;4.32;;;3.88;;
64684;SDS011;51109;47.414;18.954;2022-07-05T13:48:51;4.13;;;3.72;;
64684;SDS011;51109;47.414;18.954;2022-07-05T13:51:17;3.58;;;3.28;;
64684;SDS011;51109;47.414;18.954;2022-07-05T13:53:43;3.65;;;3.38;;
64684;SDS011;51109;47.414;18.954;2022-07-05T13:56:09;4.28;;;3.88;;
64684;SDS011;51109;47.414;18.954;2022-07-05T13:58:35;4.72;;;3.65;;
64684;SDS011;51109;47.414;18.954;2022-07-05T14:01:01;4.47;;;4.07;;
64684;SDS011;51109;47.414;18.954;2022-07-05T14:03:28;4.05;;;3.55;;
64684;SDS011;51109;47.414;18.954;2022-07-05T14:05:54;4.57;;;3.90;;
64684;SDS011;51109;47.414;18.954;2022-07-05T14:08:20;3.92;;;3.50;;
64684;SDS011;51109;47.414;18.954;2022-07-05T14:10:47;4.00;;;3.60;;
64684;SDS011;51109;47.414;18.954;2022-07-05T14:13:25;3.55;;;3.25;;
64684;SDS011;51109;47.414;18.954;2022-07-05T14:15:52;3.35;;;3.05;;
64684;SDS011;51109;47.414;18.954;2022-07-05T14:18:19;3.33;;;3.03;;
64684;SDS011;51109;47.414;18.954;2022-07-05T14:20:47;3.20;;;2.90;;
64684;SDS011;51109;47.414;18.954;2022-07-05T14:23:13;3.42;;;2.90;;
64684;SDS011;51109;47.414;18.954;2022-07-05T14:25:40;2.70;;;2.47;;
64684;SDS011;51109;47.414;18.954;2022-07-05T14:28:07;2.97;;;2.78;;
64684;SDS011;51109;47.414;18.954;2022-07-05T14:30:36;3.08;;;2.80;;
64684;SDS011;51109;47.414;18.954;2022-07-05T14:33:03;2.85;;;2.50;;
64684;SDS011;51109;47.414;18.954;2022-07-05T14:35:30;3.00;;;2.70;;
64684;SDS011;51109;47.414;18.954;2022-07-05T14:37:57;3.17;;;2.80;;
64684;SDS011;51109;47.414;18.954;2022-07-05T14:40:23;2.90;;;2.70;;
64684;SDS011;51109;47.414;18.954;2022-07-05T14:42:50;3.15;;;2.80;;
64684;SDS011;51109;47.414;18.954;2022-07-05T14:45:17;2.70;;;2.50;;
64684;SDS011;51109;47.414;18.954;2022-07-05T14:47:45;2.65;;;2.45;;
64684;SDS011;51109;47.414;18.954;2022-07-05T14:50:11;2.35;;;2.10;;
64684;SDS011;51109;47.414;18.954;2022-07-05T14:52:38;3.28;;;2.25;;
64684;SDS011;51109;47.414;18.954;2022-07-05T14:55:04;2.67;;;2.35;;
64684;SDS011;51109;47.414;18.954;2022-07-05T14:57:31;2.53;;;2.33;;
64684;SDS011;51109;47.414;18.954;2022-07-05T14:59:57;6.38;;;2.53;;
64684;SDS011;51109;47.414;18.954;2022-07-05T15:02:23;2.45;;;2.25;;
64684;SDS011;51109;47.414;18.954;2022-07-05T15:04:48;2.42;;;2.22;;
64684;SDS011;51109;47.414;18.954;2022-07-05T15:07:15;4.63;;;2.40;;
64684;SDS011;51109;47.414;18.954;2022-07-05T15:09:41;3.05;;;2.40;;
64684;SDS011;51109;47.414;18.954;2022-07-05T15:12:07;2.42;;;2.22;;
64684;SDS011;51109;47.414;18.954;2022-07-05T15:14:33;2.40;;;2.20;;
64684;SDS011;51109;47.414;18.954;2022-07-05T15:16:59;2.10;;;2.00;;